Flight Track Log - Related Links

Times and Time Zones

All times are in EDT time to prevent confusion due to time zone crossing. See the GJS3706 flight status page for this flight to view local times or setup timezone preferences in your user account.

Time Position Orientation Groundspeed Altitude Reporting Facility
EDT Latitude Longitude Course Direction KTS MPH feet Rate Location/Type
08:26AM 42.0333 -87.8333 350° North 204 235 3,500  Level Chicago TRACON
08:27AM 42.0833 -87.8000 26° Northeast 265 305 5,000 744 Climbing Chicago TRACON
08:28AM 42.1667 -87.7667 17° North 271 312 5,000 942 Level Chicago TRACON
08:29AM 42.2610 -87.9925 346° North  Level FlightAware Approximate
08:29AM 42.2333 -87.7833 350° North 281 323 6,900  Level Chicago TRACON
08:30AM 42.3350 -88.0129 350° North  Level FlightAware Approximate
08:30AM 42.3167 -87.7833 360° North 294 338 9,900  Level Chicago TRACON
08:31AM 42.3989 -88.0456 350° North  Level FlightAware Approximate
08:31AM 42.3589 -87.7903 353° North 290 334 11,100  Level Chicago Center
08:32AM 42.4442 -87.7956 357° North 302 348 13,500 1,902 Climbing Chicago Center
08:33AM 42.5375 -87.8028 357° North 329 379 15,000 732 Climbing Chicago Center
08:34AM 42.6431 -87.8131 356° North 371 427 15,000  Level Chicago Center
08:35AM 42.7406 -87.8483 345° North 375 432 15,000  Level Chicago Center
08:36AM 42.7792 -87.9783 292° West 371 427 15,000  Level Chicago Center
08:37AM 42.8156 -88.1100 291° West 372 428 15,000  Level Chicago Center
08:38AM 42.8506 -88.2403 290° West 371 427 15,000  Level Chicago Center
08:39AM 42.8925 -88.3958 290° West 368 423 15,000 -732 Level Chicago Center
08:40AM 42.9267 -88.5239 290° West 363 418 13,500 -1,610 Descending Chicago Center
08:41AM 42.9608 -88.6514 290° West 359 413 11,700 -1,597 Descending Chicago Center
08:42AM 42.9922 -88.7717 290° West 343 395 10,200 -1,756 Descending Chicago Center
08:43AM 43.0200 -88.8775 290° West 311 358 8,100 -2,146 Descending Chicago Center
08:44AM 43.0461 -88.9794 289° West 290 334 5,800 -2,049 Descending Chicago Center
08:45AM 43.0714 -89.0778 289° West 278 320 3,900 -1,463 Descending Chicago Center
08:46AM 43.0744 -89.1703 273° West 249 287 2,800 -732 Descending Chicago Center
08:47AM 43.0825 -89.2517 278° West 226 260 2,400 -780 Descending Chicago Center
08:48AM 43.1214 -89.3100 312° West 188 216 1,200 -629 Descending Chicago Center
08:49AM 43.1547 -89.3564 315° West 183 211 1,100 -97 Descending Chicago Center
08:51AM 43.1333 -89.3333 144° Southeast  Level FlightAware Approximate

Login

Don't have an account? Register now (free) for customized features, flight alerts, and more!